Time;durP1;ratioP1;P1;durP2;ratioP2;P2;SDS_P1;SDS_P2;PMS_P1;PMS_P2;Temp;Humidity;BMP_temperature;BMP_pressure;BME280_temperature;BME280_humidity;BME280_pressure;Samples;Min_cycle;Max_cycle;Signal;HPM_P1;HPM_P2
2022/08/02 00:04:04;;;;;;;10.20;9.10;;;;;;;18.98;75.18;99732.34;214670;1274;141174;-64
2022/08/02 00:09:07;;;;;;;10.30;9.30;;;;;;;18.91;75.18;99730.66;214725;1274;140384;-65
2022/08/02 00:14:09;;;;;;;7.50;6.90;;;;;;;18.82;75.20;99731.52;214774;1274;140526;-66
2022/08/02 00:19:11;;;;;;;10.30;8.90;;;;;;;18.81;75.22;99733.36;215147;1274;140747;-66
2022/08/02 00:24:14;;;;;;;10.10;9.30;;;;;;;18.80;75.26;99732.35;214937;1274;140405;-65
2022/08/02 00:29:33;;;;;;;10.00;9.00;;;;;;;18.77;75.45;99730.71;216103;1274;140245;-66
2022/08/02 00:34:45;;;;;;;10.50;9.10;;;;;;;18.74;75.43;99741.13;215562;1276;141142;-65
2022/08/02 00:39:47;;;;;;;10.30;8.60;;;;;;;18.73;75.50;99742.38;213442;1277;151796;-64
2022/08/02 00:44:50;;;;;;;8.20;7.60;;;;;;;18.71;75.44;99743.85;214396;1276;141123;-65
2022/08/02 00:49:53;;;;;;;9.00;8.20;;;;;;;18.68;75.37;99749.39;216047;1277;142140;-65
2022/08/02 00:54:55;;;;;;;9.90;9.00;;;;;;;18.64;75.40;99756.10;216209;1275;140496;-66
2022/08/02 00:59:58;;;;;;;10.60;8.20;;;;;;;18.60;75.42;99757.33;214508;1274;141135;-65
2022/08/02 01:05:01;;;;;;;9.20;8.20;;;;;;;18.59;75.38;99761.11;215050;1274;141279;-65
2022/08/02 01:10:04;;;;;;;8.90;8.10;;;;;;;18.58;75.53;99766.02;213491;1274;140871;-64
2022/08/02 01:15:11;;;;;;;9.50;8.60;;;;;;;18.56;75.87;99767.23;214350;1274;142075;-65
2022/08/02 01:20:51;;;;;;;10.30;9.20;;;;;;;18.58;76.58;99762.19;213443;1275;141878;-64
2022/08/02 01:26:19;;;;;;;9.90;9.00;;;;;;;18.66;76.97;99765.04;214258;1276;141561;-66
2022/08/02 01:31:33;;;;;;;9.30;8.60;;;;;;;18.72;76.91;99765.55;212942;1276;142047;-65
2022/08/02 01:36:45;;;;;;;9.30;8.60;;;;;;;18.68;77.21;99760.89;213319;1274;140363;-66
2022/08/02 01:41:51;;;;;;;10.60;9.10;;;;;;;18.73;77.52;99758.90;214082;1275;140229;-65
2022/08/02 01:47:05;;;;;;;19.50;8.60;;;;;;;18.77;77.79;99755.77;213097;1276;141559;-65
2022/08/02 01:52:22;;;;;;;18.10;7.40;;;;;;;18.80;77.78;99767.09;213259;1275;141681;-65
2022/08/02 01:57:26;;;;;;;;;;;;;;;18.84;77.78;99762.02;213358;1276;141198;-65
2022/08/02 02:02:31;;;;;;;8.30;7.60;;;;;;;18.87;77.77;99757.66;214071;1276;129969;-65
2022/08/02 02:07:37;;;;;;;10.20;8.20;;;;;;;18.87;77.61;99768.03;214217;1274;140519;-65
2022/08/02 02:12:41;;;;;;;11.50;8.40;;;;;;;18.74;77.40;99770.08;214226;1274;143050;-66
2022/08/02 02:17:46;;;;;;;8.90;8.20;;;;;;;18.57;77.81;99765.96;213226;1275;141235;-65
2022/08/02 02:23:11;;;;;;;9.10;8.30;;;;;;;18.61;78.14;99762.45;214330;1274;141597;-66
2022/08/02 02:28:29;;;;;;;11.20;6.80;;;;;;;18.67;78.23;99759.35;214732;1274;141331;-65
2022/08/02 02:33:36;;;;;;;8.00;7.30;;;;;;;18.72;78.25;99758.70;214958;1274;141865;-65
2022/08/02 02:38:40;;;;;;;7.60;6.90;;;;;;;18.76;78.12;99757.41;214730;1274;140859;-66
2022/08/02 02:43:43;;;;;;;9.40;8.10;;;;;;;18.81;77.99;99762.11;216305;1274;141872;-67
2022/08/02 02:48:46;;;;;;;9.20;8.30;;;;;;;18.78;77.71;99760.73;215894;1274;140673;-65
2022/08/02 02:53:50;;;;;;;7.50;7.00;;;;;;;18.71;77.83;99760.45;215518;1274;140487;-64
2022/08/02 02:59:15;;;;;;;7.80;7.20;;;;;;;18.67;77.69;99760.54;214329;1274;142324;-64
2022/08/02 03:04:19;;;;;;;9.10;7.20;;;;;;;18.62;77.72;99759.73;215476;1274;140842;-64
2022/08/02 03:09:22;;;;;;;9.30;7.20;;;;;;;18.60;77.91;99756.79;214929;1275;141600;-64
2022/08/02 03:14:25;;;;;;;6.90;6.20;;;;;;;18.71;78.29;99756.60;213496;1274;140724;-64
2022/08/02 03:19:28;;;;;;;8.30;7.60;;;;;;;18.79;78.31;99758.62;213387;1276;141622;-64
2022/08/02 03:24:35;;;;;;;;;;;;;;;18.75;78.10;99754.56;213894;1274;140659;-64
2022/08/02 03:29:39;;;;;;;10.80;8.00;;;;;;;18.73;78.47;99755.88;214136;1274;127267;-64
2022/08/02 03:34:42;;;;;;;7.60;6.80;;;;;;;18.77;78.67;99754.48;214557;1274;142017;-64
2022/08/02 03:39:45;;;;;;;8.70;7.30;;;;;;;18.76;78.53;99761.29;213948;1274;141087;-64
2022/08/02 03:44:57;;;;;;;7.90;7.30;;;;;;;18.78;78.66;99770.23;213147;1274;142069;-63
2022/08/02 03:50:01;;;;;;;8.90;7.90;;;;;;;18.83;78.93;99775.38;213543;1274;151179;-65
2022/08/02 03:55:04;;;;;;;11.00;8.60;;;;;;;18.90;79.04;99780.86;213467;1274;141704;-63
2022/08/02 04:00:16;;;;;;;10.90;7.50;;;;;;;18.97;79.05;99778.71;214481;1274;140793;-65
2022/08/02 04:05:20;;;;;;;7.20;6.70;;;;;;;19.02;79.12;99783.36;213470;1274;141453;-64
2022/08/02 04:10:23;;;;;;;9.50;7.10;;;;;;;19.05;79.12;99785.85;213819;1274;141072;-66
2022/08/02 04:15:26;;;;;;;10.30;6.80;;;;;;;19.07;79.18;99789.40;213489;1277;140961;-65
2022/08/02 04:20:34;;;;;;;8.40;7.50;;;;;;;19.07;79.00;99801.22;214619;1275;141586;-65
2022/08/02 04:25:38;;;;;;;8.30;7.60;;;;;;;19.09;79.26;99805.52;213910;1277;141823;-65
2022/08/02 04:30:44;;;;;;;9.20;7.70;;;;;;;19.23;79.60;99812.71;213904;1274;141414;-65
2022/08/02 04:35:48;;;;;;;10.00;8.60;;;;;;;19.38;79.61;99819.96;214014;1276;140500;-64
2022/08/02 04:40:54;;;;;;;14.50;9.90;;;;;;;19.43;79.41;99828.34;213194;1277;141444;-65
2022/08/02 04:45:57;;;;;;;9.60;8.90;;;;;;;19.44;79.45;99826.59;215612;1275;141459;-66
2022/08/02 04:51:03;;;;;;;10.40;8.80;;;;;;;19.52;79.66;99825.54;216191;1274;141004;-65
2022/08/02 04:56:06;;;;;;;13.80;9.90;;;;;;;19.64;79.44;99835.36;215395;1275;140974;-65
2022/08/02 05:01:10;;;;;;;10.10;8.90;;;;;;;19.75;79.47;99837.34;215512;1274;140954;-64
2022/08/02 05:06:13;;;;;;;10.20;9.30;;;;;;;19.86;79.42;99843.02;214714;1274;153144;-63
2022/08/02 05:18:11;;;;;;;15.80;11.40;;;;;;;20.03;78.84;99868.58;213015;1277;141014;-65
2022/08/02 05:23:15;;;;;;;12.50;10.90;;;;;;;20.02;78.74;99868.80;213130;1277;140554;-64
2022/08/02 05:28:43;;;;;;;10.70;9.90;;;;;;;20.12;78.96;99877.70;214058;1274;140634;-65
2022/08/02 05:40:32;;;;;;;14.60;13.30;;;;;;;20.33;78.61;99891.15;213535;1274;141024;-64
2022/08/02 05:45:36;;;;;;;16.20;14.80;;;;;;;20.29;78.45;99895.92;213360;1274;140295;-66
2022/08/02 05:50:44;;;;;;;14.30;12.90;;;;;;;20.32;78.20;99907.20;213264;1274;139709;-63
2022/08/02 05:56:00;;;;;;;15.70;14.10;;;;;;;20.33;78.17;99913.95;213133;1274;141199;-66
2022/08/02 06:01:28;;;;;;;16.10;14.50;;;;;;;20.37;78.24;99923.72;213757;1274;142255;-65
2022/08/02 06:06:34;;;;;;;17.40;14.30;;;;;;;20.48;78.17;99929.23;214472;1274;141405;-65
2022/08/02 06:11:46;;;;;;;18.10;15.20;;;;;;;20.56;77.92;99932.61;214006;1274;139850;-65
2022/08/02 06:17:05;;;;;;;17.70;14.10;;;;;;;20.63;77.83;99938.85;214562;1274;140584;-65
2022/08/02 06:22:15;;;;;;;13.30;11.90;;;;;;;20.65;77.42;99940.18;215621;1274;141869;-66
2022/08/02 06:27:40;;;;;;;13.70;12.20;;;;;;;20.61;77.07;99945.00;214656;1274;141802;-64
2022/08/02 06:32:48;;;;;;;17.80;12.20;;;;;;;20.58;76.60;99952.36;215478;1274;140803;-65
2022/08/02 06:37:55;;;;;;;13.10;11.70;;;;;;;20.48;76.17;99961.84;214878;1274;141728;-64
2022/08/02 06:43:13;;;;;;;10.40;9.60;;;;;;;20.39;75.92;99967.77;215029;1274;140397;-65
2022/08/02 06:48:16;;;;;;;11.00;10.10;;;;;;;20.34;75.76;99975.98;215554;1274;140646;-65
2022/08/02 06:53:20;;;;;;;13.50;9.60;;;;;;;20.32;75.68;99976.77;216307;1274;141335;-65
2022/08/02 06:58:22;;;;;;;10.90;10.00;;;;;;;20.25;75.44;99979.09;215826;1276;141486;-64
2022/08/02 07:03:26;;;;;;;9.20;8.10;;;;;;;20.19;75.34;99981.30;213518;1274;142373;-64
2022/08/02 07:08:34;;;;;;;12.90;8.20;;;;;;;20.17;75.45;99978.04;215228;1274;141783;-63
2022/08/02 07:13:37;;;;;;;8.00;7.20;;;;;;;20.23;75.42;99979.50;215041;1274;141329;-64
2022/08/02 07:18:42;;;;;;;8.60;8.00;;;;;;;20.20;75.22;99989.45;214396;1274;140668;-63
2022/08/02 07:23:45;;;;;;;11.30;8.00;;;;;;;20.19;75.08;99987.34;213439;1274;140891;-65
2022/08/02 07:28:48;;;;;;;8.90;7.00;;;;;;;20.17;74.95;99993.30;213201;1274;141341;-65
2022/08/02 07:33:52;;;;;;;12.60;7.00;;;;;;;20.10;74.96;100006.05;214142;1274;658679;-64
2022/08/02 07:38:56;;;;;;;13.90;7.80;;;;;;;20.08;74.98;100008.40;213987;1274;142357;-65
2022/08/02 07:44:00;;;;;;;8.00;6.70;;;;;;;20.06;74.74;100018.23;214572;1274;139932;-65
2022/08/02 07:49:02;;;;;;;7.70;6.70;;;;;;;20.08;74.71;100012.73;214094;1274;140272;-66
2022/08/02 07:54:05;;;;;;;11.30;7.10;;;;;;;20.20;74.78;100014.63;212983;1277;140754;-66
2022/08/02 07:59:09;;;;;;;6.80;6.20;;;;;;;20.33;74.77;100020.79;214001;1277;140347;-65
2022/08/02 08:04:12;;;;;;;8.30;6.90;;;;;;;20.47;74.66;100025.06;214181;1277;140848;-64
2022/08/02 08:09:17;;;;;;;12.10;6.60;;;;;;;20.66;74.60;100026.45;213109;1277;141066;-64
2022/08/02 08:14:20;;;;;;;6.90;6.20;;;;;;;20.75;74.33;100032.52;214381;1276;140242;-65
2022/08/02 08:19:24;;;;;;;7.80;6.40;;;;;;;20.76;74.12;100035.09;213806;1277;140281;-65
2022/08/02 08:24:48;;;;;;;9.30;5.50;;;;;;;20.79;73.82;100040.34;213377;1277;139918;-65
2022/08/02 08:29:51;;;;;;;6.20;5.70;;;;;;;20.84;73.57;100044.69;213913;1277;153719;-65
2022/08/02 08:34:53;;;;;;;5.60;5.10;;;;;;;20.91;73.15;100043.84;215097;1274;151051;-65
2022/08/02 08:39:55;;;;;;;6.90;5.40;;;;;;;21.05;73.10;100044.70;214255;1274;139699;-65
2022/08/02 08:45:00;;;;;;;5.70;5.10;;;;;;;21.19;72.62;100047.00;215878;1274;140672;-67
2022/08/02 08:50:09;;;;;;;6.30;4.20;;;;;;;21.32;72.17;100050.77;215813;1274;140773;-65
2022/08/02 08:55:27;;;;;;;4.90;4.50;;;;;;;21.49;71.91;100054.04;215289;1274;162287;-66
2022/08/02 09:00:32;;;;;;;6.00;4.80;;;;;;;21.69;71.67;100056.64;215517;1277;140578;-64
2022/08/02 09:05:36;;;;;;;3.80;3.60;;;;;;;21.94;71.26;100061.34;214429;1276;142071;-66
2022/08/02 09:10:44;;;;;;;6.40;5.10;;;;;;;22.08;70.61;100066.15;214090;1277;141101;-65
2022/08/02 09:15:59;;;;;;;4.50;4.10;;;;;;;22.27;70.40;100066.64;213090;1277;146004;-67
2022/08/02 09:21:15;;;;;;;4.70;4.40;;;;;;;22.50;69.60;100072.11;215144;1276;139919;-65
2022/08/02 09:26:22;;;;;;;7.20;4.50;;;;;;;22.70;69.23;100075.41;214401;1277;140303;-67
2022/08/02 09:31:25;;;;;;;4.50;4.10;;;;;;;22.89;68.63;100072.79;213368;1277;140497;-65
2022/08/02 09:36:38;;;;;;;4.60;3.80;;;;;;;23.07;68.20;100083.77;214051;1277;141220;-64
2022/08/02 09:41:44;;;;;;;4.20;3.50;;;;;;;23.21;67.52;100086.30;213026;1277;139579;-64
2022/08/02 09:46:46;;;;;;;4.80;4.20;;;;;;;23.33;67.18;100089.69;215042;1277;140114;-64
2022/08/02 09:51:55;;;;;;;5.70;4.10;;;;;;;23.40;66.79;100088.27;213463;1276;140075;-64
2022/08/02 09:57:00;;;;;;;4.30;3.90;;;;;;;23.37;66.37;100090.77;214110;1277;139722;-64
2022/08/02 10:02:10;;;;;;;7.40;4.50;;;;;;;23.44;66.59;100086.37;213219;1277;139532;-63
2022/08/02 10:07:21;;;;;;;4.60;4.00;;;;;;;23.61;65.97;100088.02;214295;1277;140939;-65
2022/08/02 10:12:25;;;;;;;5.50;4.00;;;;;;;23.79;65.72;100089.17;214790;1277;140099;-64
2022/08/02 10:17:28;;;;;;;4.60;3.70;;;;;;;23.93;65.13;100084.86;212941;1277;139703;-64
2022/08/02 10:22:37;;;;;;;5.80;4.50;;;;;;;24.11;64.56;100078.14;214004;1277;140376;-65
2022/08/02 10:27:42;;;;;;;5.80;4.70;;;;;;;24.30;64.22;100078.20;214469;1277;139749;-65
2022/08/02 10:33:08;;;;;;;8.50;4.10;;;;;;;24.46;63.94;100081.30;215044;1277;206089;-65
2022/08/02 10:38:11;;;;;;;4.60;4.30;;;;;;;24.60;63.30;100083.92;214306;1276;140261;-65
2022/08/02 10:43:41;;;;;;;5.10;3.90;;;;;;;24.72;63.00;100083.02;214768;1277;140734;-65
2022/08/02 10:49:10;;;;;;;6.30;3.90;;;;;;;24.94;63.09;100082.20;215659;1276;140817;-65
2022/08/02 10:54:46;;;;;;;4.40;3.60;;;;;;;25.28;62.71;100077.91;215904;1276;140026;-65
2022/08/02 10:59:53;;;;;;;4.00;3.80;;;;;;;25.64;62.35;100074.52;215622;1276;140959;-65
2022/08/02 11:05:02;;;;;;;5.00;3.90;;;;;;;25.88;61.66;100072.70;214381;1277;140375;-64
2022/08/02 11:10:38;;;;;;;4.20;3.90;;;;;;;26.06;61.12;100078.81;214437;1277;139858;-64
2022/08/02 11:15:49;;;;;;;4.00;3.70;;;;;;;26.29;60.37;100079.27;213392;1277;140660;-64
2022/08/02 11:21:31;;;;;;;4.60;4.10;;;;;;;26.66;59.89;100075.80;215325;1277;139244;-65
2022/08/02 11:26:33;;;;;;;4.10;3.80;;;;;;;27.08;58.70;100077.83;213461;1276;140698;-65
2022/08/02 11:31:41;;;;;;;5.10;4.50;;;;;;;27.09;57.55;100073.70;213351;1277;139645;-64
2022/08/02 11:36:46;;;;;;;4.30;4.00;;;;;;;27.26;57.33;100074.29;213734;1277;139235;-64
2022/08/02 11:41:53;;;;;;;5.80;3.90;;;;;;;27.41;56.94;100069.83;213006;1276;140362;-64
2022/08/02 11:47:03;;;;;;;4.90;4.40;;;;;;;27.42;56.24;100067.59;214196;1276;140377;-64
2022/08/02 11:52:09;;;;;;;3.40;3.10;;;;;;;27.56;55.83;100071.27;213362;1277;139822;-65
2022/08/02 11:57:17;;;;;;;3.60;3.40;;;;;;;27.73;55.49;100074.77;213619;1277;139429;-64
2022/08/02 12:02:25;;;;;;;3.20;3.00;;;;;;;27.67;54.97;100073.07;213348;1277;139567;-64
2022/08/02 12:07:36;;;;;;;4.70;3.90;;;;;;;27.48;54.50;100075.23;214192;1276;141397;-64
2022/08/02 12:12:57;;;;;;;4.60;3.90;;;;;;;27.18;54.66;100074.18;213277;1276;141602;-64
2022/08/02 12:23:22;;;;;;;3.40;3.20;;;;;;;27.05;54.55;100075.05;214183;1276;139476;-65
2022/08/02 12:28:25;;;;;;;3.90;3.40;;;;;;;26.88;54.58;100072.31;214614;1276;139772;-65
2022/08/02 12:33:44;;;;;;;4.10;3.60;;;;;;;26.74;54.20;100069.98;215212;1276;139991;-65
2022/08/02 12:38:58;;;;;;;5.30;3.50;;;;;;;26.65;53.71;100066.36;214580;1276;139705;-64
2022/08/02 12:44:01;;;;;;;3.90;3.60;;;;;;;26.63;53.71;100068.23;215606;1276;140693;-65
2022/08/02 12:49:17;;;;;;;3.60;3.40;;;;;;;26.46;53.91;100065.03;214704;1275;141064;-65
2022/08/02 12:54:27;;;;;;;4.60;4.20;;;;;;;26.37;54.11;100067.73;216200;1275;141324;-65
2022/08/02 12:59:37;;;;;;;4.10;3.80;;;;;;;26.33;54.64;100070.38;215974;1276;142782;-65
2022/08/02 13:04:42;;;;;;;5.70;3.90;;;;;;;26.35;54.65;100073.52;215309;1277;140420;-65
2022/08/02 13:09:53;;;;;;;3.90;3.20;;;;;;;26.59;54.76;100065.61;213908;1276;141308;-64
2022/08/02 13:15:09;;;;;;;5.00;3.90;;;;;;;27.20;54.28;100063.86;214677;1276;141427;-65
2022/08/02 13:20:32;;;;;;;5.20;4.70;;;;;;;27.60;53.34;100066.42;213944;1276;141261;-65
2022/08/02 13:25:34;;;;;;;4.20;3.80;;;;;;;27.75;52.75;100061.02;214222;1277;139627;-65
2022/08/02 13:30:38;;;;;;;20.80;15.70;;;;;;;27.74;51.81;100055.56;214517;1274;139765;-64
2022/08/02 13:35:41;;;;;;;5.90;5.40;;;;;;;27.71;51.65;100060.00;214383;1275;141306;-65
2022/08/02 13:46:07;;;;;;;11.80;9.40;;;;;;;27.51;51.20;100044.65;213345;1274;140256;-65
2022/08/02 13:51:13;;;;;;;4.10;3.80;;;;;;;27.51;51.24;100043.96;213221;1274;140577;-64
2022/08/02 13:56:16;;;;;;;7.20;6.60;;;;;;;27.35;50.95;100042.94;213188;1274;141111;-65
2022/08/02 14:01:19;;;;;;;10.50;9.10;;;;;;;27.25;50.84;100038.28;213371;1276;140990;-64
2022/08/02 14:06:22;;;;;;;4.50;4.20;;;;;;;27.36;51.27;100036.86;213462;1277;140879;-64
2022/08/02 14:11:25;;;;;;;6.20;4.90;;;;;;;27.51;51.34;100039.40;214636;1276;140807;-64
2022/08/02 14:16:27;;;;;;;8.30;4.90;;;;;;;27.41;51.18;100038.77;213639;1274;141079;-64
2022/08/02 14:21:34;;;;;;;4.50;4.20;;;;;;;27.24;51.32;100042.02;213477;1277;140253;-65
2022/08/02 14:26:49;;;;;;;4.50;4.10;;;;;;;27.07;51.66;100037.15;213941;1274;140885;-65
2022/08/02 14:31:51;;;;;;;3.70;3.40;;;;;;;26.87;52.00;100037.63;213667;1276;140517;-65
2022/08/02 14:36:56;;;;;;;4.60;4.30;;;;;;;26.64;51.87;100032.56;215379;1274;140664;-65
2022/08/02 14:41:59;;;;;;;;;;;;;;;26.47;52.58;100031.31;215506;1276;139956;-66
2022/08/02 14:47:02;;;;;;;4.70;4.30;;;;;;;26.31;53.27;100025.70;216704;1274;125920;-65
2022/08/02 14:52:05;;;;;;;5.60;4.60;;;;;;;26.16;53.61;100024.11;216202;1275;139896;-65
2022/08/02 14:57:10;;;;;;;5.20;4.60;;;;;;;26.06;53.91;100020.44;216204;1273;141379;-65
2022/08/02 15:02:13;;;;;;;7.30;5.00;;;;;;;26.03;54.51;100027.01;215771;1275;139716;-65
2022/08/02 15:07:18;;;;;;;5.10;4.80;;;;;;;25.99;54.68;100023.84;213834;1275;139131;-64
2022/08/02 15:12:22;;;;;;;3.70;3.40;;;;;;;26.12;54.80;100017.41;214402;1274;140150;-65
2022/08/02 15:17:24;;;;;;;3.00;2.90;;;;;;;26.47;54.56;100010.24;215045;1275;140068;-64
2022/08/02 15:22:27;;;;;;;4.30;3.70;;;;;;;26.62;53.39;100012.21;213644;1276;140425;-64
2022/08/02 15:27:30;;;;;;;2.90;2.70;;;;;;;26.67;53.46;100011.82;214822;1276;141703;-65
2022/08/02 15:32:33;;;;;;;3.50;3.20;;;;;;;26.84;52.95;100013.15;213264;1274;139520;-64
2022/08/02 15:37:37;;;;;;;4.80;3.10;;;;;;;26.86;52.59;100012.92;212914;1274;139833;-64
2022/08/02 15:42:44;;;;;;;3.70;3.50;;;;;;;26.73;52.54;100012.36;213439;1276;140412;-64
2022/08/02 15:47:48;;;;;;;3.70;2.90;;;;;;;26.54;52.55;100012.14;213400;1274;140347;-65
2022/08/02 15:52:56;;;;;;;3.90;3.60;;;;;;;26.33;52.62;100008.39;213739;1276;140323;-64
2022/08/02 15:58:00;;;;;;;3.30;3.10;;;;;;;26.32;53.02;100014.05;213598;1275;140509;-64
2022/08/02 16:03:04;;;;;;;3.50;3.30;;;;;;;26.45;52.63;100008.36;214931;1276;139265;-65
2022/08/02 16:08:07;;;;;;;3.40;3.10;;;;;;;26.45;52.51;100009.71;214882;1274;140023;-64
2022/08/02 16:18:32;;;;;;;3.30;3.10;;;;;;;26.64;52.15;100014.27;215123;1274;139113;-65
2022/08/02 16:23:35;;;;;;;3.00;2.80;;;;;;;26.69;51.91;100011.35;213138;1274;140417;-64
2022/08/02 16:29:00;;;;;;;3.10;2.90;;;;;;;26.71;51.56;100011.90;214403;1274;139520;-64
2022/08/02 16:34:03;;;;;;;4.10;3.80;;;;;;;26.67;51.27;100008.79;215261;1274;139948;-65
2022/08/02 16:39:10;;;;;;;6.70;4.50;;;;;;;26.60;51.21;100010.02;215532;1274;140282;-65
2022/08/02 16:44:27;;;;;;;3.20;2.50;;;;;;;26.51;51.10;100012.64;216060;1274;140499;-65
2022/08/02 16:49:33;;;;;;;5.60;3.40;;;;;;;26.43;50.91;100013.75;216201;1276;141402;-65
2022/08/02 16:54:59;;;;;;;4.00;2.70;;;;;;;26.31;50.87;100012.58;216058;1275;141054;-65
2022/08/02 17:00:11;;;;;;;3.90;2.80;;;;;;;26.17;51.10;100013.08;215628;1275;140662;-64
2022/08/02 17:05:15;;;;;;;4.40;2.80;;;;;;;26.01;50.97;100012.98;214971;1276;139972;-64
2022/08/02 17:10:17;;;;;;;3.10;2.90;;;;;;;25.81;51.58;100007.96;215219;1276;139363;-65
2022/08/02 17:15:23;;;;;;;2.40;2.20;;;;;;;25.60;51.71;100004.94;214468;1276;140977;-64
2022/08/02 17:20:48;;;;;;;2.50;2.40;;;;;;;25.38;52.71;100008.60;213311;1274;140196;-64
2022/08/02 17:25:51;;;;;;;2.20;2.10;;;;;;;25.10;53.41;100018.09;214362;1274;140708;-65
2022/08/02 17:30:55;;;;;;;2.80;2.60;;;;;;;24.80;53.87;100021.38;213304;1277;141065;-64
2022/08/02 17:35:58;;;;;;;3.30;3.00;;;;;;;24.52;54.87;100018.89;213265;1276;142123;-65
2022/08/02 17:41:06;;;;;;;3.30;3.10;;;;;;;24.25;55.36;100021.45;213497;1276;140503;-64
2022/08/02 17:46:17;;;;;;;2.80;2.60;;;;;;;23.97;56.24;100032.63;214215;1276;140293;-65
2022/08/02 17:51:23;;;;;;;3.40;2.40;;;;;;;23.71;56.74;100030.70;214110;1275;141875;-65
2022/08/02 17:56:53;;;;;;;3.40;3.20;;;;;;;23.46;57.36;100040.45;214033;1274;141262;-65
2022/08/02 18:01:59;;;;;;;3.10;2.90;;;;;;;23.22;58.02;100038.14;214079;1276;224346;-65
2022/08/02 18:07:05;;;;;;;3.30;3.00;;;;;;;22.98;58.85;100039.27;213410;1274;141964;-65
2022/08/02 18:12:13;;;;;;;3.60;3.40;;;;;;;22.78;59.44;100040.73;214703;1274;142465;-65
2022/08/02 18:17:21;;;;;;;8.10;3.70;;;;;;;22.56;59.77;100038.30;213542;1274;141039;-65
2022/08/02 18:22:24;;;;;;;3.60;3.40;;;;;;;22.34;60.12;100043.09;214441;1276;140518;-65
2022/08/02 18:27:28;;;;;;;4.30;3.20;;;;;;;22.08;60.65;100046.83;215223;1274;140465;-65
2022/08/02 18:32:31;;;;;;;2.90;2.70;;;;;;;21.88;61.11;100051.34;214450;1276;141557;-65
2022/08/02 18:37:54;;;;;;;3.50;3.20;;;;;;;21.68;61.46;100051.02;214695;1275;141905;-65
2022/08/02 18:43:06;;;;;;;5.00;3.40;;;;;;;21.46;61.91;100050.40;214122;1276;140885;-65
2022/08/02 18:48:10;;;;;;;4.00;3.10;;;;;;;21.27;62.21;100059.14;215475;1276;142548;-65
2022/08/02 18:53:37;;;;;;;4.70;3.00;;;;;;;21.06;62.52;100061.10;213631;1277;140824;-65
2022/08/02 18:58:44;;;;;;;6.20;3.70;;;;;;;20.91;62.90;100063.13;215198;1275;141786;-65
2022/08/02 19:03:49;;;;;;;6.90;3.80;;;;;;;20.76;63.23;100073.92;215475;1275;141321;-65
2022/08/02 19:08:52;;;;;;;3.80;3.60;;;;;;;20.61;63.71;100074.25;213431;1277;211807;-65
2022/08/02 19:14:19;;;;;;;3.10;2.90;;;;;;;20.31;63.88;100076.10;214934;1275;141696;-64
2022/08/02 19:19:30;;;;;;;7.60;3.10;;;;;;;20.13;64.51;100078.77;214484;1275;141609;-64
2022/08/02 19:24:36;;;;;;;3.50;3.20;;;;;;;20.02;64.76;100085.88;213033;1277;141463;-65
2022/08/02 19:29:46;;;;;;;3.60;3.30;;;;;;;19.89;65.15;100081.31;213593;1277;874952;-65
2022/08/02 19:34:54;;;;;;;5.40;3.60;;;;;;;19.76;65.43;100086.83;214560;1277;140477;-65
2022/08/02 19:39:58;;;;;;;3.80;3.50;;;;;;;19.61;65.58;100086.70;213230;1276;140661;-65
2022/08/02 19:45:00;;;;;;;3.30;3.10;;;;;;;19.39;66.00;100080.22;213247;1274;141895;-65
2022/08/02 19:50:07;;;;;;;3.20;3.00;;;;;;;19.13;66.51;100075.69;213584;1274;141797;-64
2022/08/02 19:55:11;;;;;;;8.90;3.40;;;;;;;19.03;66.99;100074.95;214152;1276;141269;-65
2022/08/02 20:00:36;;;;;;;5.10;3.80;;;;;;;18.99;67.37;100075.42;213285;1276;141165;-64
2022/08/02 20:05:43;;;;;;;4.40;4.00;;;;;;;18.91;67.42;100073.94;214927;1277;141647;-65
2022/08/02 20:10:50;;;;;;;7.20;3.90;;;;;;;18.77;67.50;100076.98;213511;1277;140949;-65
2022/08/02 20:15:54;;;;;;;3.70;3.50;;;;;;;18.52;67.66;100086.73;214702;1275;142375;-69
2022/08/02 20:20:59;;;;;;;4.50;4.10;;;;;;;18.43;68.32;100088.00;213515;1276;142003;-65
2022/08/02 20:26:04;;;;;;;3.20;3.00;;;;;;;18.40;68.59;100088.83;213310;1274;140502;-63
2022/08/02 20:31:08;;;;;;;8.90;4.40;;;;;;;18.35;68.61;100090.42;215276;1276;141612;-64
2022/08/02 20:36:11;;;;;;;4.10;3.70;;;;;;;18.28;68.48;100094.14;215474;1276;140666;-64
2022/08/02 20:41:16;;;;;;;4.90;4.50;;;;;;;18.02;68.43;100091.16;216082;1274;140811;-65
2022/08/02 20:46:24;;;;;;;3.90;3.60;;;;;;;17.71;68.76;100085.52;215381;1275;141822;-64
2022/08/02 20:51:27;;;;;;;4.60;4.30;;;;;;;17.46;69.21;100086.39;215825;1275;140545;-66
2022/08/02 20:56:36;;;;;;;7.60;3.60;;;;;;;17.38;69.94;100085.88;215667;1276;141994;-65
2022/08/02 21:01:40;;;;;;;10.70;3.90;;;;;;;17.45;70.08;100091.13;215067;1275;141961;-65
2022/08/02 21:07:01;;;;;;;9.60;3.70;;;;;;;17.32;70.05;100086.89;214296;1274;141952;-65
2022/08/02 21:12:05;;;;;;;3.60;3.40;;;;;;;17.15;70.40;100089.21;213222;1275;165178;-65
2022/08/02 21:17:15;;;;;;;4.10;3.80;;;;;;;17.10;71.04;100091.43;214001;1277;232480;-64
2022/08/02 21:22:25;;;;;;;3.80;3.60;;;;;;;17.16;71.09;100087.59;214069;1276;142094;-65
2022/08/02 21:27:30;;;;;;;5.50;4.60;;;;;;;17.14;71.05;100087.97;214236;1277;142133;-64
2022/08/02 21:32:54;;;;;;;4.80;4.40;;;;;;;16.85;71.01;100089.89;213173;1277;140924;-63
2022/08/02 21:37:59;;;;;;;7.90;5.00;;;;;;;16.60;71.51;100089.70;214587;1276;141093;-65
2022/08/02 21:43:02;;;;;;;5.90;3.90;;;;;;;16.53;72.21;100088.33;213572;1277;141355;-64
2022/08/02 21:48:10;;;;;;;4.40;4.10;;;;;;;16.59;72.29;100081.19;213867;1276;140786;-63
2022/08/02 21:53:15;;;;;;;9.10;4.30;;;;;;;16.52;72.30;100082.25;214167;1276;141341;-65
2022/08/02 21:58:39;;;;;;;7.40;4.20;;;;;;;16.50;72.52;100083.23;214327;1277;140278;-63
2022/08/02 22:03:42;;;;;;;11.80;4.30;;;;;;;16.49;72.46;100085.44;213532;1276;140096;-63
2022/08/02 22:08:57;;;;;;;9.90;4.90;;;;;;;16.43;72.65;100089.94;214168;1277;141231;-65
2022/08/02 22:14:00;;;;;;;6.10;4.90;;;;;;;16.42;72.78;100094.52;213913;1276;140589;-64
2022/08/02 22:19:04;;;;;;;5.70;5.20;;;;;;;16.32;72.94;100096.45;214035;1277;141156;-65
2022/08/02 22:24:08;;;;;;;6.00;4.70;;;;;;;16.35;73.09;100095.27;214651;1276;140826;-63
2022/08/02 22:29:22;;;;;;;6.80;4.90;;;;;;;16.37;73.05;100098.35;214034;1277;140277;-66
2022/08/02 22:34:24;;;;;;;4.80;4.40;;;;;;;16.31;72.95;100089.94;215839;1276;140805;-66
2022/08/02 22:39:47;;;;;;;5.10;4.50;;;;;;;16.05;72.84;100101.06;214433;1276;139860;-65
2022/08/02 22:45:11;;;;;;;7.50;5.30;;;;;;;15.86;73.51;100108.39;215299;1276;142246;-64
2022/08/02 22:50:14;;;;;;;4.60;4.20;;;;;;;15.84;73.86;100105.86;215783;1277;142149;-64
2022/08/02 22:55:17;;;;;;;5.40;4.80;;;;;;;15.96;74.04;100107.63;215693;1276;141209;-65
2022/08/02 23:00:24;;;;;;;7.50;6.20;;;;;;;15.94;73.75;100106.17;215603;1277;140120;-66
2022/08/02 23:05:27;;;;;;;6.40;5.80;;;;;;;15.79;73.83;100110.98;215104;1277;139853;-65
2022/08/02 23:10:30;;;;;;;5.60;5.00;;;;;;;15.71;74.18;100115.45;215494;1276;139697;-63
2022/08/02 23:20:58;;;;;;;4.90;4.50;;;;;;;15.86;74.42;100121.36;213031;1277;141372;-64
2022/08/02 23:26:00;;;;;;;6.40;5.30;;;;;;;15.91;74.42;100122.02;214361;1276;142514;-65
2022/08/02 23:31:28;;;;;;;5.50;5.00;;;;;;;15.93;74.44;100118.42;214139;1275;140454;-63
2022/08/02 23:36:31;;;;;;;7.60;5.00;;;;;;;15.78;74.10;100114.32;214639;1277;142211;-64
2022/08/02 23:41:34;;;;;;;5.10;4.70;;;;;;;15.62;74.10;100115.61;213442;1277;141120;-63
2022/08/02 23:46:41;;;;;;;6.10;5.50;;;;;;;15.48;74.25;100108.92;213637;1275;141723;-64
2022/08/02 23:51:43;;;;;;;6.40;5.40;;;;;;;15.35;74.32;100113.17;213333;1277;141189;-64
2022/08/02 23:56:46;;;;;;;7.50;4.70;;;;;;;15.35;74.69;100108.88;214326;1276;142682;-63
